sensor_id;sensor_type;location;lat;lon;timestamp;P1;durP1;ratioP1;P2;durP2;ratioP2
67554;SDS011;54385;53.516;49.456;2022-12-18T00:01:13;17.85;;;6.85;;
67554;SDS011;54385;53.516;49.456;2022-12-18T00:03:42;19.50;;;7.30;;
67554;SDS011;54385;53.516;49.456;2022-12-18T00:06:08;17.38;;;7.38;;
67554;SDS011;54385;53.516;49.456;2022-12-18T00:08:34;15.10;;;6.55;;
67554;SDS011;54385;53.516;49.456;2022-12-18T00:11:07;14.40;;;6.85;;
67554;SDS011;54385;53.516;49.456;2022-12-18T00:13:36;17.60;;;7.25;;
67554;SDS011;54385;53.516;49.456;2022-12-18T00:16:03;18.13;;;7.80;;
67554;SDS011;54385;53.516;49.456;2022-12-18T00:18:31;18.95;;;7.47;;
67554;SDS011;54385;53.516;49.456;2022-12-18T00:21:04;17.58;;;7.85;;
67554;SDS011;54385;53.516;49.456;2022-12-18T00:23:32;20.92;;;8.02;;
67554;SDS011;54385;53.516;49.456;2022-12-18T00:25:59;19.30;;;8.02;;
67554;SDS011;54385;53.516;49.456;2022-12-18T00:28:27;19.35;;;8.25;;
67554;SDS011;54385;53.516;49.456;2022-12-18T00:31:02;13.50;;;7.28;;
67554;SDS011;54385;53.516;49.456;2022-12-18T00:33:30;17.35;;;7.28;;
67554;SDS011;54385;53.516;49.456;2022-12-18T00:36:06;19.17;;;7.30;;
67554;SDS011;54385;53.516;49.456;2022-12-18T00:38:35;21.92;;;7.60;;
67554;SDS011;54385;53.516;49.456;2022-12-18T00:41:02;16.55;;;7.00;;
67554;SDS011;54385;53.516;49.456;2022-12-18T00:43:29;19.73;;;7.55;;
67554;SDS011;54385;53.516;49.456;2022-12-18T00:45:56;17.60;;;6.72;;
67554;SDS011;54385;53.516;49.456;2022-12-18T00:48:22;16.35;;;7.38;;
67554;SDS011;54385;53.516;49.456;2022-12-18T00:50:49;16.92;;;6.85;;
67554;SDS011;54385;53.516;49.456;2022-12-18T00:53:16;20.73;;;8.50;;
67554;SDS011;54385;53.516;49.456;2022-12-18T00:55:43;17.45;;;7.38;;
67554;SDS011;54385;53.516;49.456;2022-12-18T00:58:10;16.42;;;7.38;;
67554;SDS011;54385;53.516;49.456;2022-12-18T01:00:37;12.95;;;5.47;;
67554;SDS011;54385;53.516;49.456;2022-12-18T01:03:04;17.67;;;6.80;;
67554;SDS011;54385;53.516;49.456;2022-12-18T01:05:31;14.82;;;6.55;;
67554;SDS011;54385;53.516;49.456;2022-12-18T01:07:58;15.75;;;7.13;;
67554;SDS011;54385;53.516;49.456;2022-12-18T01:10:25;13.80;;;6.68;;
67554;SDS011;54385;53.516;49.456;2022-12-18T01:12:52;17.52;;;6.20;;
67554;SDS011;54385;53.516;49.456;2022-12-18T01:15:18;16.77;;;7.45;;
67554;SDS011;54385;53.516;49.456;2022-12-18T01:17:45;14.93;;;7.60;;
67554;SDS011;54385;53.516;49.456;2022-12-18T01:20:12;14.13;;;6.65;;
67554;SDS011;54385;53.516;49.456;2022-12-18T01:22:39;16.90;;;7.05;;
67554;SDS011;54385;53.516;49.456;2022-12-18T01:25:05;14.27;;;6.38;;
67554;SDS011;54385;53.516;49.456;2022-12-18T01:27:33;14.07;;;6.45;;
67554;SDS011;54385;53.516;49.456;2022-12-18T01:29:59;18.27;;;7.32;;
67554;SDS011;54385;53.516;49.456;2022-12-18T01:32:26;14.93;;;6.15;;
67554;SDS011;54385;53.516;49.456;2022-12-18T01:34:56;16.85;;;6.38;;
67554;SDS011;54385;53.516;49.456;2022-12-18T01:37:22;13.00;;;6.80;;
67554;SDS011;54385;53.516;49.456;2022-12-18T01:39:48;11.65;;;6.00;;
67554;SDS011;54385;53.516;49.456;2022-12-18T01:42:15;11.07;;;5.53;;
67554;SDS011;54385;53.516;49.456;2022-12-18T01:50:34;11.73;;;3.88;;
67554;SDS011;54385;53.516;49.456;2022-12-18T01:53:07;9.05;;;3.78;;
67554;SDS011;54385;53.516;49.456;2022-12-18T01:55:46;10.07;;;5.35;;
67554;SDS011;54385;53.516;49.456;2022-12-18T01:58:18;14.88;;;4.80;;
67554;SDS011;54385;53.516;49.456;2022-12-18T02:00:45;11.68;;;5.15;;
67554;SDS011;54385;53.516;49.456;2022-12-18T02:03:12;13.85;;;5.30;;
67554;SDS011;54385;53.516;49.456;2022-12-18T02:11:03;8.55;;;4.43;;
67554;SDS011;54385;53.516;49.456;2022-12-18T02:13:41;13.27;;;5.00;;
67554;SDS011;54385;53.516;49.456;2022-12-18T02:16:17;9.98;;;4.85;;
67554;SDS011;54385;53.516;49.456;2022-12-18T02:18:47;10.13;;;3.72;;
67554;SDS011;54385;53.516;49.456;2022-12-18T02:21:40;11.02;;;4.68;;
67554;SDS011;54385;53.516;49.456;2022-12-18T02:24:33;11.85;;;4.50;;
67554;SDS011;54385;53.516;49.456;2022-12-18T02:27:07;7.53;;;3.00;;
67554;SDS011;54385;53.516;49.456;2022-12-18T02:32:14;10.75;;;5.22;;
67554;SDS011;54385;53.516;49.456;2022-12-18T02:34:45;6.88;;;3.25;;
67554;SDS011;54385;53.516;49.456;2022-12-18T02:37:15;5.47;;;2.67;;
67554;SDS011;54385;53.516;49.456;2022-12-18T02:39:44;10.27;;;4.35;;
67554;SDS011;54385;53.516;49.456;2022-12-18T02:42:13;9.07;;;4.65;;
67554;SDS011;54385;53.516;49.456;2022-12-18T02:47:13;6.35;;;3.10;;
67554;SDS011;54385;53.516;49.456;2022-12-18T03:00:49;6.30;;;3.15;;
67554;SDS011;54385;53.516;49.456;2022-12-18T03:03:35;7.25;;;3.75;;
67554;SDS011;54385;53.516;49.456;2022-12-18T03:06:16;3.63;;;2.25;;
67554;SDS011;54385;53.516;49.456;2022-12-18T03:11:27;7.10;;;2.97;;
67554;SDS011;54385;53.516;49.456;2022-12-18T03:14:15;5.72;;;3.70;;
67554;SDS011;54385;53.516;49.456;2022-12-18T03:16:43;10.50;;;4.18;;
67554;SDS011;54385;53.516;49.456;2022-12-18T03:19:14;4.90;;;2.67;;
67554;SDS011;54385;53.516;49.456;2022-12-18T03:21:45;5.05;;;3.17;;
67554;SDS011;54385;53.516;49.456;2022-12-18T03:24:15;10.95;;;4.53;;
67554;SDS011;54385;53.516;49.456;2022-12-18T03:26:46;7.10;;;3.17;;
67554;SDS011;54385;53.516;49.456;2022-12-18T03:29:18;8.80;;;3.75;;
67554;SDS011;54385;53.516;49.456;2022-12-18T03:31:49;7.15;;;3.25;;
67554;SDS011;54385;53.516;49.456;2022-12-18T03:34:22;9.15;;;4.22;;
67554;SDS011;54385;53.516;49.456;2022-12-18T03:36:54;8.60;;;3.65;;
67554;SDS011;54385;53.516;49.456;2022-12-18T03:39:21;11.07;;;3.47;;
67554;SDS011;54385;53.516;49.456;2022-12-18T03:41:52;7.05;;;4.47;;
67554;SDS011;54385;53.516;49.456;2022-12-18T03:47:24;8.00;;;4.25;;
67554;SDS011;54385;53.516;49.456;2022-12-18T03:50:17;9.05;;;3.88;;
67554;SDS011;54385;53.516;49.456;2022-12-18T03:55:55;6.72;;;2.95;;
67554;SDS011;54385;53.516;49.456;2022-12-18T03:58:25;7.60;;;3.55;;
67554;SDS011;54385;53.516;49.456;2022-12-18T04:00:53;7.60;;;3.83;;
67554;SDS011;54385;53.516;49.456;2022-12-18T04:03:25;6.80;;;3.20;;
67554;SDS011;54385;53.516;49.456;2022-12-18T04:05:54;8.43;;;3.25;;
67554;SDS011;54385;53.516;49.456;2022-12-18T04:08:22;7.55;;;3.95;;
67554;SDS011;54385;53.516;49.456;2022-12-18T04:10:50;5.40;;;3.13;;
67554;SDS011;54385;53.516;49.456;2022-12-18T04:13:30;5.80;;;3.17;;
67554;SDS011;54385;53.516;49.456;2022-12-18T04:16:00;6.93;;;3.40;;
67554;SDS011;54385;53.516;49.456;2022-12-18T04:18:27;6.88;;;3.20;;
67554;SDS011;54385;53.516;49.456;2022-12-18T04:20:53;5.60;;;2.55;;
67554;SDS011;54385;53.516;49.456;2022-12-18T04:23:20;6.05;;;3.38;;
67554;SDS011;54385;53.516;49.456;2022-12-18T04:25:49;5.32;;;3.05;;
67554;SDS011;54385;53.516;49.456;2022-12-18T04:28:15;5.55;;;2.65;;
67554;SDS011;54385;53.516;49.456;2022-12-18T04:30:42;5.90;;;2.60;;
67554;SDS011;54385;53.516;49.456;2022-12-18T04:33:09;4.97;;;2.47;;
67554;SDS011;54385;53.516;49.456;2022-12-18T04:35:38;6.30;;;2.83;;
67554;SDS011;54385;53.516;49.456;2022-12-18T04:38:06;4.30;;;3.35;;
67554;SDS011;54385;53.516;49.456;2022-12-18T04:40:36;3.88;;;2.33;;
67554;SDS011;54385;53.516;49.456;2022-12-18T04:43:04;5.32;;;2.40;;
67554;SDS011;54385;53.516;49.456;2022-12-18T04:45:31;2.53;;;1.83;;
67554;SDS011;54385;53.516;49.456;2022-12-18T04:47:58;5.20;;;2.38;;
67554;SDS011;54385;53.516;49.456;2022-12-18T04:50:25;4.97;;;2.38;;
67554;SDS011;54385;53.516;49.456;2022-12-18T04:52:52;4.40;;;2.13;;
67554;SDS011;54385;53.516;49.456;2022-12-18T04:55:19;4.75;;;1.77;;
67554;SDS011;54385;53.516;49.456;2022-12-18T04:57:46;2.90;;;1.58;;
67554;SDS011;54385;53.516;49.456;2022-12-18T05:00:13;5.38;;;2.55;;
67554;SDS011;54385;53.516;49.456;2022-12-18T05:02:40;2.72;;;1.15;;
67554;SDS011;54385;53.516;49.456;2022-12-18T05:05:07;3.83;;;1.50;;
67554;SDS011;54385;53.516;49.456;2022-12-18T05:12:26;2.03;;;1.17;;
67554;SDS011;54385;53.516;49.456;2022-12-18T05:14:52;2.55;;;1.30;;
67554;SDS011;54385;53.516;49.456;2022-12-18T05:17:19;2.28;;;1.42;;
67554;SDS011;54385;53.516;49.456;2022-12-18T05:19:45;2.03;;;0.88;;
67554;SDS011;54385;53.516;49.456;2022-12-18T05:22:12;2.15;;;1.45;;
67554;SDS011;54385;53.516;49.456;2022-12-18T05:24:41;3.72;;;1.40;;
67554;SDS011;54385;53.516;49.456;2022-12-18T05:27:07;1.85;;;1.10;;
67554;SDS011;54385;53.516;49.456;2022-12-18T05:29:34;3.00;;;1.75;;
67554;SDS011;54385;53.516;49.456;2022-12-18T05:32:00;2.17;;;1.42;;
67554;SDS011;54385;53.516;49.456;2022-12-18T05:34:27;2.05;;;1.48;;
67554;SDS011;54385;53.516;49.456;2022-12-18T05:36:53;2.40;;;1.25;;
67554;SDS011;54385;53.516;49.456;2022-12-18T05:39:19;3.45;;;2.20;;
67554;SDS011;54385;53.516;49.456;2022-12-18T05:41:46;5.05;;;2.65;;
67554;SDS011;54385;53.516;49.456;2022-12-18T05:44:12;2.78;;;1.60;;
67554;SDS011;54385;53.516;49.456;2022-12-18T05:46:39;2.95;;;1.92;;
67554;SDS011;54385;53.516;49.456;2022-12-18T05:49:05;3.92;;;2.15;;
67554;SDS011;54385;53.516;49.456;2022-12-18T05:51:31;4.63;;;2.33;;
67554;SDS011;54385;53.516;49.456;2022-12-18T05:53:58;3.55;;;2.35;;
67554;SDS011;54385;53.516;49.456;2022-12-18T05:56:24;5.47;;;2.17;;
67554;SDS011;54385;53.516;49.456;2022-12-18T05:58:51;5.68;;;2.90;;
67554;SDS011;54385;53.516;49.456;2022-12-18T06:01:22;5.03;;;2.75;;
67554;SDS011;54385;53.516;49.456;2022-12-18T06:03:51;5.07;;;3.35;;
67554;SDS011;54385;53.516;49.456;2022-12-18T06:06:19;5.30;;;2.45;;
67554;SDS011;54385;53.516;49.456;2022-12-18T06:08:51;7.45;;;3.75;;
67554;SDS011;54385;53.516;49.456;2022-12-18T06:11:22;5.72;;;3.67;;
67554;SDS011;54385;53.516;49.456;2022-12-18T06:13:53;4.50;;;3.00;;
67554;SDS011;54385;53.516;49.456;2022-12-18T06:16:20;6.88;;;4.10;;
67554;SDS011;54385;53.516;49.456;2022-12-18T06:18:47;3.95;;;2.78;;
67554;SDS011;54385;53.516;49.456;2022-12-18T06:21:13;6.90;;;4.30;;
67554;SDS011;54385;53.516;49.456;2022-12-18T06:28:37;9.20;;;4.97;;
67554;SDS011;54385;53.516;49.456;2022-12-18T06:31:04;15.30;;;5.50;;
67554;SDS011;54385;53.516;49.456;2022-12-18T06:33:31;10.23;;;5.55;;
67554;SDS011;54385;53.516;49.456;2022-12-18T06:36:02;10.02;;;5.47;;
67554;SDS011;54385;53.516;49.456;2022-12-18T06:38:33;15.45;;;8.10;;
67554;SDS011;54385;53.516;49.456;2022-12-18T06:41:06;9.43;;;5.90;;
67554;SDS011;54385;53.516;49.456;2022-12-18T06:43:36;18.35;;;6.07;;
67554;SDS011;54385;53.516;49.456;2022-12-18T06:46:03;13.80;;;6.43;;
67554;SDS011;54385;53.516;49.456;2022-12-18T06:48:30;8.50;;;5.20;;
67554;SDS011;54385;53.516;49.456;2022-12-18T06:50:56;11.40;;;7.40;;
67554;SDS011;54385;53.516;49.456;2022-12-18T06:53:23;19.90;;;7.03;;
67554;SDS011;54385;53.516;49.456;2022-12-18T06:55:49;19.88;;;8.90;;
67554;SDS011;54385;53.516;49.456;2022-12-18T06:58:16;13.75;;;6.45;;
67554;SDS011;54385;53.516;49.456;2022-12-18T07:00:43;17.90;;;7.70;;
67554;SDS011;54385;53.516;49.456;2022-12-18T07:03:09;15.52;;;6.20;;
67554;SDS011;54385;53.516;49.456;2022-12-18T07:05:39;16.02;;;7.03;;
67554;SDS011;54385;53.516;49.456;2022-12-18T07:08:06;14.82;;;6.78;;
67554;SDS011;54385;53.516;49.456;2022-12-18T07:10:32;11.63;;;6.43;;
67554;SDS011;54385;53.516;49.456;2022-12-18T07:12:59;11.68;;;6.03;;
67554;SDS011;54385;53.516;49.456;2022-12-18T07:15:25;13.80;;;6.93;;
67554;SDS011;54385;53.516;49.456;2022-12-18T07:17:51;13.77;;;7.63;;
67554;SDS011;54385;53.516;49.456;2022-12-18T07:20:18;15.77;;;7.05;;
67554;SDS011;54385;53.516;49.456;2022-12-18T07:22:44;12.32;;;6.97;;
67554;SDS011;54385;53.516;49.456;2022-12-18T07:25:11;11.93;;;7.00;;
67554;SDS011;54385;53.516;49.456;2022-12-18T07:27:37;12.13;;;6.25;;
67554;SDS011;54385;53.516;49.456;2022-12-18T07:30:03;15.05;;;7.03;;
67554;SDS011;54385;53.516;49.456;2022-12-18T07:32:30;14.02;;;7.38;;
67554;SDS011;54385;53.516;49.456;2022-12-18T07:34:57;16.15;;;6.35;;
67554;SDS011;54385;53.516;49.456;2022-12-18T07:37:23;18.95;;;8.73;;
67554;SDS011;54385;53.516;49.456;2022-12-18T07:39:49;13.88;;;7.65;;
67554;SDS011;54385;53.516;49.456;2022-12-18T07:42:16;15.30;;;6.20;;
67554;SDS011;54385;53.516;49.456;2022-12-18T07:44:57;14.23;;;6.75;;
67554;SDS011;54385;53.516;49.456;2022-12-18T07:47:25;13.38;;;6.30;;
67554;SDS011;54385;53.516;49.456;2022-12-18T07:49:51;11.88;;;6.63;;
67554;SDS011;54385;53.516;49.456;2022-12-18T07:52:17;13.63;;;8.82;;
67554;SDS011;54385;53.516;49.456;2022-12-18T07:57:11;11.23;;;5.25;;
67554;SDS011;54385;53.516;49.456;2022-12-18T07:59:37;16.67;;;9.15;;
67554;SDS011;54385;53.516;49.456;2022-12-18T08:02:03;17.15;;;8.15;;
67554;SDS011;54385;53.516;49.456;2022-12-18T08:04:30;19.13;;;8.30;;
67554;SDS011;54385;53.516;49.456;2022-12-18T08:06:56;13.98;;;7.35;;
67554;SDS011;54385;53.516;49.456;2022-12-18T08:09:23;13.50;;;6.60;;
67554;SDS011;54385;53.516;49.456;2022-12-18T08:11:49;17.73;;;7.70;;
67554;SDS011;54385;53.516;49.456;2022-12-18T08:14:15;15.32;;;8.15;;
67554;SDS011;54385;53.516;49.456;2022-12-18T08:16:42;13.45;;;8.07;;
67554;SDS011;54385;53.516;49.456;2022-12-18T08:19:10;12.50;;;7.80;;
67554;SDS011;54385;53.516;49.456;2022-12-18T08:21:36;17.70;;;7.00;;
67554;SDS011;54385;53.516;49.456;2022-12-18T08:24:03;13.90;;;7.85;;
67554;SDS011;54385;53.516;49.456;2022-12-18T08:26:30;17.85;;;7.28;;
67554;SDS011;54385;53.516;49.456;2022-12-18T08:28:58;16.33;;;7.47;;
67554;SDS011;54385;53.516;49.456;2022-12-18T08:31:25;13.32;;;5.60;;
67554;SDS011;54385;53.516;49.456;2022-12-18T08:33:53;13.88;;;5.78;;
67554;SDS011;54385;53.516;49.456;2022-12-18T08:36:20;12.82;;;5.45;;
67554;SDS011;54385;53.516;49.456;2022-12-18T08:38:47;15.90;;;7.53;;
67554;SDS011;54385;53.516;49.456;2022-12-18T08:41:14;9.15;;;5.72;;
67554;SDS011;54385;53.516;49.456;2022-12-18T08:43:42;16.90;;;6.82;;
67554;SDS011;54385;53.516;49.456;2022-12-18T08:46:27;12.20;;;6.03;;
67554;SDS011;54385;53.516;49.456;2022-12-18T08:48:59;10.05;;;6.38;;
67554;SDS011;54385;53.516;49.456;2022-12-18T08:51:26;11.35;;;4.85;;
67554;SDS011;54385;53.516;49.456;2022-12-18T08:53:52;12.60;;;5.93;;
67554;SDS011;54385;53.516;49.456;2022-12-18T08:56:18;12.68;;;6.15;;
67554;SDS011;54385;53.516;49.456;2022-12-18T08:58:45;11.43;;;6.03;;
67554;SDS011;54385;53.516;49.456;2022-12-18T09:01:12;13.27;;;7.45;;
67554;SDS011;54385;53.516;49.456;2022-12-18T09:03:39;9.20;;;4.90;;
67554;SDS011;54385;53.516;49.456;2022-12-18T09:06:06;12.40;;;5.28;;
67554;SDS011;54385;53.516;49.456;2022-12-18T09:08:33;11.90;;;6.15;;
67554;SDS011;54385;53.516;49.456;2022-12-18T09:11:01;9.35;;;5.85;;
67554;SDS011;54385;53.516;49.456;2022-12-18T09:13:28;10.88;;;5.90;;
67554;SDS011;54385;53.516;49.456;2022-12-18T09:15:54;10.55;;;6.45;;
67554;SDS011;54385;53.516;49.456;2022-12-18T09:18:22;10.73;;;7.05;;
67554;SDS011;54385;53.516;49.456;2022-12-18T09:20:49;12.63;;;6.00;;
67554;SDS011;54385;53.516;49.456;2022-12-18T09:23:20;10.55;;;5.35;;
67554;SDS011;54385;53.516;49.456;2022-12-18T09:25:47;8.88;;;5.43;;
67554;SDS011;54385;53.516;49.456;2022-12-18T09:28:15;9.10;;;4.97;;
67554;SDS011;54385;53.516;49.456;2022-12-18T09:30:46;7.35;;;4.32;;
67554;SDS011;54385;53.516;49.456;2022-12-18T09:33:14;6.90;;;4.00;;
67554;SDS011;54385;53.516;49.456;2022-12-18T09:35:42;7.15;;;4.50;;
67554;SDS011;54385;53.516;49.456;2022-12-18T09:38:11;5.57;;;3.70;;
67554;SDS011;54385;53.516;49.456;2022-12-18T09:40:43;9.32;;;6.05;;
67554;SDS011;54385;53.516;49.456;2022-12-18T09:43:16;6.85;;;3.90;;
67554;SDS011;54385;53.516;49.456;2022-12-18T09:45:49;6.30;;;3.45;;
67554;SDS011;54385;53.516;49.456;2022-12-18T09:48:23;7.25;;;4.07;;
67554;SDS011;54385;53.516;49.456;2022-12-18T09:50:54;10.30;;;4.93;;
67554;SDS011;54385;53.516;49.456;2022-12-18T09:53:26;8.38;;;4.45;;
67554;SDS011;54385;53.516;49.456;2022-12-18T09:55:56;7.32;;;3.97;;
67554;SDS011;54385;53.516;49.456;2022-12-18T10:01:00;9.43;;;4.80;;
67554;SDS011;54385;53.516;49.456;2022-12-18T10:03:26;9.35;;;4.75;;
67554;SDS011;54385;53.516;49.456;2022-12-18T10:22:47;7.72;;;3.95;;
67554;SDS011;54385;53.516;49.456;2022-12-18T10:27:56;9.63;;;5.28;;
67554;SDS011;54385;53.516;49.456;2022-12-18T10:30:26;6.57;;;3.75;;
67554;SDS011;54385;53.516;49.456;2022-12-18T10:32:52;9.75;;;5.10;;
67554;SDS011;54385;53.516;49.456;2022-12-18T10:35:26;10.07;;;5.40;;
67554;SDS011;54385;53.516;49.456;2022-12-18T10:38:27;9.85;;;6.22;;
67554;SDS011;54385;53.516;49.456;2022-12-18T10:43:38;9.77;;;4.65;;
67554;SDS011;54385;53.516;49.456;2022-12-18T10:51:05;8.60;;;4.50;;
67554;SDS011;54385;53.516;49.456;2022-12-18T10:53:33;12.30;;;4.63;;
67554;SDS011;54385;53.516;49.456;2022-12-18T10:56:02;10.38;;;3.97;;
67554;SDS011;54385;53.516;49.456;2022-12-18T10:58:34;5.22;;;2.78;;
67554;SDS011;54385;53.516;49.456;2022-12-18T11:01:07;8.73;;;3.70;;
67554;SDS011;54385;53.516;49.456;2022-12-18T11:06:17;6.82;;;3.47;;
67554;SDS011;54385;53.516;49.456;2022-12-18T11:09:09;7.45;;;3.17;;
67554;SDS011;54385;53.516;49.456;2022-12-18T11:14:19;8.20;;;3.47;;
67554;SDS011;54385;53.516;49.456;2022-12-18T11:16:52;5.38;;;2.92;;
67554;SDS011;54385;53.516;49.456;2022-12-18T11:21:57;6.72;;;3.38;;
67554;SDS011;54385;53.516;49.456;2022-12-18T11:24:27;7.32;;;3.85;;
67554;SDS011;54385;53.516;49.456;2022-12-18T11:27:06;6.03;;;2.78;;
67554;SDS011;54385;53.516;49.456;2022-12-18T11:29:43;8.27;;;3.85;;
67554;SDS011;54385;53.516;49.456;2022-12-18T11:35:03;5.78;;;2.97;;
67554;SDS011;54385;53.516;49.456;2022-12-18T11:37:31;9.05;;;4.93;;
67554;SDS011;54385;53.516;49.456;2022-12-18T11:40:17;11.20;;;5.15;;
67554;SDS011;54385;53.516;49.456;2022-12-18T11:42:50;11.05;;;4.70;;
67554;SDS011;54385;53.516;49.456;2022-12-18T11:45:24;12.93;;;5.35;;
67554;SDS011;54385;53.516;49.456;2022-12-18T11:48:41;10.70;;;4.45;;
67554;SDS011;54385;53.516;49.456;2022-12-18T11:50:52;8.35;;;4.78;;
67554;SDS011;54385;53.516;49.456;2022-12-18T11:53:24;11.75;;;5.47;;
67554;SDS011;54385;53.516;49.456;2022-12-18T12:01:50;12.57;;;7.30;;
67554;SDS011;54385;53.516;49.456;2022-12-18T12:09:53;18.63;;;7.22;;
67554;SDS011;54385;53.516;49.456;2022-12-18T12:15:49;13.60;;;5.57;;
67554;SDS011;54385;53.516;49.456;2022-12-18T12:20:55;21.88;;;8.88;;
67554;SDS011;54385;53.516;49.456;2022-12-18T12:23:44;15.73;;;7.30;;
67554;SDS011;54385;53.516;49.456;2022-12-18T12:32:09;22.30;;;7.80;;
67554;SDS011;54385;53.516;49.456;2022-12-18T12:34:48;12.52;;;6.78;;
67554;SDS011;54385;53.516;49.456;2022-12-18T12:37:42;10.18;;;5.72;;
67554;SDS011;54385;53.516;49.456;2022-12-18T12:40:38;12.40;;;5.88;;
67554;SDS011;54385;53.516;49.456;2022-12-18T12:43:32;9.98;;;5.78;;
67554;SDS011;54385;53.516;49.456;2022-12-18T12:46:06;12.18;;;5.93;;
67554;SDS011;54385;53.516;49.456;2022-12-18T12:51:26;8.52;;;5.43;;
67554;SDS011;54385;53.516;49.456;2022-12-18T12:53:56;7.45;;;4.82;;
67554;SDS011;54385;53.516;49.456;2022-12-18T12:56:24;9.65;;;5.18;;
67554;SDS011;54385;53.516;49.456;2022-12-18T13:01:53;11.27;;;5.32;;
67554;SDS011;54385;53.516;49.456;2022-12-18T13:07:16;10.38;;;5.38;;
67554;SDS011;54385;53.516;49.456;2022-12-18T13:12:31;15.43;;;6.25;;
67554;SDS011;54385;53.516;49.456;2022-12-18T13:18:20;10.65;;;6.30;;
67554;SDS011;54385;53.516;49.456;2022-12-18T13:20:49;12.43;;;6.25;;
67554;SDS011;54385;53.516;49.456;2022-12-18T13:25:49;10.43;;;5.43;;
67554;SDS011;54385;53.516;49.456;2022-12-18T13:36:56;7.85;;;4.00;;
67554;SDS011;54385;53.516;49.456;2022-12-18T13:39:42;8.60;;;5.00;;
67554;SDS011;54385;53.516;49.456;2022-12-18T13:44:36;3.53;;;2.42;;
67554;SDS011;54385;53.516;49.456;2022-12-18T13:47:24;8.00;;;4.60;;
67554;SDS011;54385;53.516;49.456;2022-12-18T13:49:57;5.90;;;3.78;;
67554;SDS011;54385;53.516;49.456;2022-12-18T13:52:24;6.25;;;3.40;;
67554;SDS011;54385;53.516;49.456;2022-12-18T13:54:54;6.80;;;3.50;;
67554;SDS011;54385;53.516;49.456;2022-12-18T13:57:30;4.60;;;2.70;;
67554;SDS011;54385;53.516;49.456;2022-12-18T14:00:23;5.70;;;3.55;;
67554;SDS011;54385;53.516;49.456;2022-12-18T14:02:51;5.50;;;2.63;;
67554;SDS011;54385;53.516;49.456;2022-12-18T14:05:23;4.35;;;2.95;;
67554;SDS011;54385;53.516;49.456;2022-12-18T14:07:51;5.78;;;3.42;;
67554;SDS011;54385;53.516;49.456;2022-12-18T14:10:19;8.90;;;3.22;;
67554;SDS011;54385;53.516;49.456;2022-12-18T14:12:48;5.32;;;3.80;;
67554;SDS011;54385;53.516;49.456;2022-12-18T14:17:55;7.20;;;3.47;;
67554;SDS011;54385;53.516;49.456;2022-12-18T14:20:23;5.15;;;3.47;;
67554;SDS011;54385;53.516;49.456;2022-12-18T14:22:51;4.15;;;2.50;;
67554;SDS011;54385;53.516;49.456;2022-12-18T14:25:19;7.53;;;3.53;;
67554;SDS011;54385;53.516;49.456;2022-12-18T14:30:25;5.53;;;2.65;;
67554;SDS011;54385;53.516;49.456;2022-12-18T14:38:34;4.90;;;2.50;;
67554;SDS011;54385;53.516;49.456;2022-12-18T14:41:12;5.07;;;2.92;;
67554;SDS011;54385;53.516;49.456;2022-12-18T14:43:41;3.83;;;2.78;;
67554;SDS011;54385;53.516;49.456;2022-12-18T14:46:30;4.30;;;2.20;;
67554;SDS011;54385;53.516;49.456;2022-12-18T14:52:03;5.15;;;2.78;;
67554;SDS011;54385;53.516;49.456;2022-12-18T14:54:32;3.42;;;2.47;;
67554;SDS011;54385;53.516;49.456;2022-12-18T14:57:02;4.30;;;2.83;;
67554;SDS011;54385;53.516;49.456;2022-12-18T14:59:48;5.72;;;3.38;;
67554;SDS011;54385;53.516;49.456;2022-12-18T15:05:02;4.30;;;2.03;;
67554;SDS011;54385;53.516;49.456;2022-12-18T15:07:41;3.78;;;2.35;;
67554;SDS011;54385;53.516;49.456;2022-12-18T15:10:13;6.25;;;2.85;;
67554;SDS011;54385;53.516;49.456;2022-12-18T15:20:41;2.88;;;1.98;;
67554;SDS011;54385;53.516;49.456;2022-12-18T15:26:06;3.22;;;2.13;;
67554;SDS011;54385;53.516;49.456;2022-12-18T15:28:39;3.10;;;1.80;;
67554;SDS011;54385;53.516;49.456;2022-12-18T15:33:45;3.30;;;1.48;;
67554;SDS011;54385;53.516;49.456;2022-12-18T15:36:34;3.20;;;2.05;;
67554;SDS011;54385;53.516;49.456;2022-12-18T15:39:05;2.33;;;1.40;;
67554;SDS011;54385;53.516;49.456;2022-12-18T15:41:34;3.63;;;1.75;;
67554;SDS011;54385;53.516;49.456;2022-12-18T15:44:02;1.63;;;1.23;;
67554;SDS011;54385;53.516;49.456;2022-12-18T15:46:30;1.90;;;1.13;;
67554;SDS011;54385;53.516;49.456;2022-12-18T15:48:57;3.03;;;1.30;;
67554;SDS011;54385;53.516;49.456;2022-12-18T15:53:53;2.22;;;1.30;;
67554;SDS011;54385;53.516;49.456;2022-12-18T15:56:21;1.38;;;0.82;;
67554;SDS011;54385;53.516;49.456;2022-12-18T15:59:14;2.15;;;1.40;;
67554;SDS011;54385;53.516;49.456;2022-12-18T16:01:47;1.83;;;1.38;;
67554;SDS011;54385;53.516;49.456;2022-12-18T16:04:17;2.58;;;1.60;;
67554;SDS011;54385;53.516;49.456;2022-12-18T16:06:47;2.50;;;1.30;;
67554;SDS011;54385;53.516;49.456;2022-12-18T16:09:14;4.28;;;1.92;;
67554;SDS011;54385;53.516;49.456;2022-12-18T16:11:41;3.20;;;1.70;;
67554;SDS011;54385;53.516;49.456;2022-12-18T16:14:16;3.40;;;2.10;;
67554;SDS011;54385;53.516;49.456;2022-12-18T16:16:45;3.63;;;1.92;;
67554;SDS011;54385;53.516;49.456;2022-12-18T16:19:14;2.50;;;1.33;;
67554;SDS011;54385;53.516;49.456;2022-12-18T16:21:42;4.22;;;2.35;;
67554;SDS011;54385;53.516;49.456;2022-12-18T16:24:19;5.35;;;2.97;;
67554;SDS011;54385;53.516;49.456;2022-12-18T16:26:57;3.15;;;2.17;;
67554;SDS011;54385;53.516;49.456;2022-12-18T16:29:25;3.92;;;2.15;;
67554;SDS011;54385;53.516;49.456;2022-12-18T16:31:59;5.90;;;3.05;;
67554;SDS011;54385;53.516;49.456;2022-12-18T16:34:30;4.50;;;2.90;;
67554;SDS011;54385;53.516;49.456;2022-12-18T16:36:58;7.97;;;3.78;;
67554;SDS011;54385;53.516;49.456;2022-12-18T16:39:26;6.43;;;2.90;;
67554;SDS011;54385;53.516;49.456;2022-12-18T16:41:54;7.07;;;3.80;;
67554;SDS011;54385;53.516;49.456;2022-12-18T16:44:20;6.97;;;3.38;;
67554;SDS011;54385;53.516;49.456;2022-12-18T16:46:47;8.80;;;3.45;;
67554;SDS011;54385;53.516;49.456;2022-12-18T16:49:14;8.73;;;3.45;;
67554;SDS011;54385;53.516;49.456;2022-12-18T16:51:42;6.32;;;3.53;;
67554;SDS011;54385;53.516;49.456;2022-12-18T16:54:08;8.25;;;4.10;;
67554;SDS011;54385;53.516;49.456;2022-12-18T16:56:35;6.95;;;3.53;;
67554;SDS011;54385;53.516;49.456;2022-12-18T16:59:04;6.97;;;3.92;;
67554;SDS011;54385;53.516;49.456;2022-12-18T17:01:31;8.15;;;3.67;;
67554;SDS011;54385;53.516;49.456;2022-12-18T17:04:10;5.50;;;3.53;;
67554;SDS011;54385;53.516;49.456;2022-12-18T17:06:40;6.70;;;3.72;;
67554;SDS011;54385;53.516;49.456;2022-12-18T17:09:12;6.43;;;3.28;;
67554;SDS011;54385;53.516;49.456;2022-12-18T17:11:41;6.22;;;3.50;;
67554;SDS011;54385;53.516;49.456;2022-12-18T17:14:10;8.60;;;4.60;;
67554;SDS011;54385;53.516;49.456;2022-12-18T17:16:41;6.95;;;3.63;;
67554;SDS011;54385;53.516;49.456;2022-12-18T17:19:09;8.20;;;4.07;;
67554;SDS011;54385;53.516;49.456;2022-12-18T17:21:36;7.07;;;3.90;;
67554;SDS011;54385;53.516;49.456;2022-12-18T17:24:03;7.43;;;4.40;;
67554;SDS011;54385;53.516;49.456;2022-12-18T17:26:30;9.23;;;3.72;;
67554;SDS011;54385;53.516;49.456;2022-12-18T17:28:57;7.30;;;4.20;;
67554;SDS011;54385;53.516;49.456;2022-12-18T17:31:25;6.32;;;3.40;;
67554;SDS011;54385;53.516;49.456;2022-12-18T17:33:54;4.70;;;2.88;;
67554;SDS011;54385;53.516;49.456;2022-12-18T17:36:21;7.85;;;4.03;;
67554;SDS011;54385;53.516;49.456;2022-12-18T17:38:52;6.55;;;3.50;;